Durango Ski Resort, Colorado Weather observations

Data are for observation ending at time listed.
 Day   Time    Ave.   Ave.  Ave.  Vector   Max.    Total    Solar   Ave.  
  of    of     Air    Rel.  Wind   Wind    Wind   Precip.   Rad.    Soil  
Year   Day     Temp.  Hum.  Speed  Dir.    Gust                     Temp. 
2017   (PST)    F      %     mph   deg.    mph      in.     W/m2     F   
------------------------------------------------------------------------------
  20   17:20   12.9    95    1.1   152      4.4    99999.00   99999    99999.0
  20   17:30   12.7    95    1.7   159      5.2    99999.00   99999    99999.0
  20   17:40   12.5    96    1.9   151      5.7    99999.00   99999    99999.0
  20   17:50   12.7    96    2.7   158      6.5    99999.00   99999    99999.0
  20   18:00   12.8    96    3.0   156      8.6    99999.00   99999    99999.0
  20   18:10   13.0    96    2.0   167      6.9    99999.00   99999    99999.0
  20   18:20   13.1    96    1.7   165      5.2    99999.00   99999    99999.0
  20   18:30   13.2    95    0.6   168      3.9    99999.00   99999    99999.0
  20   18:40   13.4    95    0.0     0      0.0    99999.00   99999    99999.0
  20   18:50   13.6    95    0.0     0      0.0    99999.00   99999    99999.0
  20   19:00   13.6    95    0.1   167      3.5    99999.00   99999    99999.0
  20   19:10   13.6    96    0.3   167      3.9    99999.00   99999    99999.0
  20   19:20   13.7    96    1.5   162      5.2    99999.00   99999    99999.0
  20   19:30   13.7    96    1.1   158      7.4    99999.00   99999    99999.0
  20   19:40   13.6    95    0.9   160      4.8    99999.00   99999    99999.0
  20   19:50   13.4    95    3.2   151      6.5    99999.00   99999    99999.0
  20   20:00   13.3    95    2.7   150      5.7    99999.00   99999    99999.0
  20   20:10   13.3    95    2.0   151      5.7    99999.00   99999    99999.0
  20   20:20   13.2    95    1.6   146      6.1    99999.00   99999    99999.0
  20   20:30   12.9    95    0.4   157      3.9    99999.00   99999    99999.0
  20   20:40   13.0    95    0.1   164      3.5    99999.00   99999    99999.0
  20   20:50   13.1    95    0.6   170      4.4    99999.00   99999    99999.0
  20   21:00   13.1    95    1.1   167      3.9    99999.00   99999    99999.0
  20   21:10   13.2    95    0.5   170      3.9    99999.00   99999    99999.0
  20   21:20   13.3    95    0.6   169      3.9    99999.00   99999    99999.0
  20   21:30   13.4    95    0.8   165      4.4    99999.00   99999    99999.0
  20   21:40   13.4    95    0.4   182      5.2    99999.00   99999    99999.0
  20   21:50   13.5    95    0.3   179      3.9    99999.00   99999    99999.0
  20   22:00   13.5    95    0.8   181      4.8    99999.00   99999    99999.0
  20   22:10   13.6    95    0.3   176      5.2    99999.00   99999    99999.0
  20   22:20   13.7    95    0.0   175      3.1    99999.00   99999    99999.0
  20   22:30   13.7    95    0.3   164      3.5    99999.00   99999    99999.0
  20   22:40   13.7    95    0.3   177      3.9    99999.00   99999    99999.0
  20   22:50   13.7    95    0.5   166      3.9    99999.00   99999    99999.0
  20   23:00   13.7    95    0.8   152      5.7    99999.00   99999    99999.0
  20   23:10   13.7    95    0.9   166      4.4    99999.00   99999    99999.0
  20   23:20   13.8    95    0.0     0      0.0    99999.00   99999    99999.0
  20   23:30   14.0    95    0.3   177      3.9    99999.00   99999    99999.0
  20   23:40   14.2    95    0.3   168      4.4    99999.00   99999    99999.0
  20   23:50   14.3    95    0.0     0      0.0    99999.00   99999    99999.0
  21    0:00   14.3    95    0.0     0      0.0    99999.00   99999    99999.0
  21    0:10   14.4    95    0.0     0      0.0    99999.00   99999    99999.0
  21    0:20   14.4    95    0.0     0      0.0    99999.00   99999    99999.0
  21    0:30   14.4    95    0.0     0      0.0    99999.00   99999    99999.0
  21    0:40   14.4    95    0.0     0      0.0    99999.00   99999    99999.0
  21    0:50   14.4    95    0.0     0      0.0    99999.00   99999    99999.0
  21    1:00   14.4    95    0.0     0      0.0    99999.00   99999    99999.0
  21    1:10   14.5    95    0.0     0      0.0    99999.00   99999    99999.0
  21    1:20   14.6    95    0.0     0      0.0    99999.00   99999    99999.0
  21    1:30   14.6    95    0.0     0      0.0    99999.00   99999    99999.0
  21    1:40   14.6    95    0.0     0      0.0    99999.00   99999    99999.0
  21    1:50   14.6    95    0.0     0      0.0    99999.00   99999    99999.0
  21    2:00   14.6    95    0.1   176      3.5    99999.00   99999    99999.0
  21    2:10   14.6    95    0.0   203      3.1    99999.00   99999    99999.0
  21    2:20   14.6    95    0.6   169      4.4    99999.00   99999    99999.0
  21    2:30   14.6    95    0.4   165      3.9    99999.00   99999    99999.0
  21    2:40   14.7    96    0.2   184      4.8    99999.00   99999    99999.0
  21    2:50   14.8    96    0.1   164      4.4    99999.00   99999    99999.0
  21    3:00   14.8    96    1.6   167      6.5    99999.00   99999    99999.0
  21    3:10   14.9    96    0.7   167      5.2    99999.00   99999    99999.0
  21    3:20   14.9    96    0.4   178      4.4    99999.00   99999    99999.0
  21    3:30   15.0    96    0.7   178      4.4    99999.00   99999    99999.0
  21    3:40   15.2    96    0.2   178      3.9    99999.00   99999    99999.0
  21    3:50   15.2    96    1.0   164      5.7    99999.00   99999    99999.0
  21    4:00   15.3    96    0.8   177      4.8    99999.00   99999    99999.0
  21    4:10   15.4    96    0.1   169      3.5    99999.00   99999    99999.0
  21    4:20   15.4    96    0.6   167      4.4    99999.00   99999    99999.0
  21    4:30   15.4    96    0.0     0      0.0    99999.00   99999    99999.0
  21    4:40   15.4    96    0.0     0      0.0    99999.00   99999    99999.0
  21    4:50   15.3    96    0.0     0      0.0    99999.00   99999    99999.0
  21    5:00   15.3    96    0.7   173      4.8    99999.00   99999    99999.0
  21    5:10   15.5    96    0.1   186      3.5    99999.00   99999    99999.0
  21    5:20   15.5    96    0.2   190      3.9    99999.00   99999    99999.0
  21    5:30   15.5    96    0.0   175      3.1    99999.00   99999    99999.0
  21    5:40   15.6    96    0.0     0      0.0    99999.00   99999    99999.0
  21    5:50   15.7    96    0.0     0      0.0    99999.00   99999    99999.0
  21    6:00   15.7    96    0.0     0      0.0    99999.00   99999    99999.0
  21    6:10   15.7    96    0.9   177      6.1    99999.00   99999    99999.0
  21    6:20   15.7    96    1.5   171      5.7    99999.00   99999    99999.0
  21    6:30   15.8    96    0.6   158      4.8    99999.00   99999    99999.0
  21    6:40   15.9    96    0.4   161      3.9    99999.00   99999    99999.0
  21    6:50   15.9    96    0.6   166      4.4    99999.00   99999    99999.0
  21    7:00   15.9    96    0.4   155      4.8    99999.00   99999    99999.0
  21    7:10   15.9    96    0.8   168      3.9    99999.00   99999    99999.0
  21    7:20   16.0    96    0.3   170      4.4    99999.00   99999    99999.0
  21    7:30   16.1    96    0.2   172      4.4    99999.00   99999    99999.0
  21    7:40   16.2    96    0.2   182      3.9    99999.00   99999    99999.0
  21    7:50   16.3    96    0.2   166      3.9    99999.00   99999    99999.0
  21    8:00   16.5    96    0.5   184      4.4    99999.00   99999    99999.0
  21    8:10   16.5    96    2.0   155      6.1    99999.00   99999    99999.0
  21    8:20   16.5    96    1.3   162      6.1    99999.00   99999    99999.0
  21    8:30   16.6    96    1.0   161      5.7    99999.00   99999    99999.0
  21    8:40   16.7    96    1.1   159      5.2    99999.00   99999    99999.0
  21    8:50   16.9    96    0.5   166      3.9    99999.00   99999    99999.0
  21    9:00   17.1    96    0.7   149      4.4    99999.00   99999    99999.0
  21    9:10   17.1    96    1.0   162      5.7    99999.00   99999    99999.0
  21    9:20   17.4    96    1.2   155      3.9    99999.00   99999    99999.0
  21    9:30   17.7    96    0.8   162      5.2    99999.00   99999    99999.0
  21    9:40   18.2    96    0.6   162      5.2    99999.00   99999    99999.0
  21    9:50   18.3    96    0.8   160      4.8    99999.00   99999    99999.0
  21   10:00   18.3    97    0.7   166      5.7    99999.00   99999    99999.0
  21   10:10   18.5    97    0.2   163      3.5    99999.00   99999    99999.0
  21   10:20   18.8    97    0.0     0      0.0    99999.00   99999    99999.0
  21   10:30   19.5    97    0.0     0      0.0    99999.00   99999    99999.0
  21   10:40   20.8    97    0.0     0      0.0    99999.00   99999    99999.0
  21   10:50   20.8    97    0.0     0      0.0    99999.00   99999    99999.0
  21   11:00   19.5    96    0.1   231      3.9    99999.00   99999    99999.0
  21   11:10   17.9    96    4.6   274     16.3    99999.00   99999    99999.0
  21   11:20   17.2    96    4.5   282     14.2    99999.00   99999    99999.0
  21   11:30   17.1    96    6.7   279     17.2    99999.00   99999    99999.0
  21   11:40   16.8    96    7.9   273     18.9    99999.00   99999    99999.0
  21   11:50   16.5    96    8.4   267     15.9    99999.00   99999    99999.0
  21   12:00   16.3    96    9.5   284     23.1    99999.00   99999    99999.0
  21   12:10   16.0    96    9.2   281     21.0    99999.00   99999    99999.0
  21   12:20   15.7    96   10.6   281     22.3    99999.00   99999    99999.0
  21   12:30   15.4    96   10.7   278     19.3    99999.00   99999    99999.0
  21   12:40   15.5    96   11.3   279     21.9    99999.00   99999    99999.0
  21   12:50   15.2    96   11.4   278     22.3    99999.00   99999    99999.0
  21   13:00   15.4    96    9.6   285     22.7    99999.00   99999    99999.0
  21   13:10   15.4    96    9.4   282     25.7    99999.00   99999    99999.0
  21   13:20   15.3    96   11.1   282     22.3    99999.00   99999    99999.0
  21   13:30   15.2    96   11.1   288     21.4    99999.00   99999    99999.0
  21   13:40   15.2    96    9.3   277     18.0    99999.00   99999    99999.0
  21   13:50   15.3    96   10.8   284     23.1    99999.00   99999    99999.0
  21   14:00   15.5    96    8.3   284     17.6    99999.00   99999    99999.0
  21   14:10   15.7    96    9.0   275     17.6    99999.00   99999    99999.0
  21   14:20   15.8    96    8.7   282     18.5    99999.00   99999    99999.0
  21   14:30   16.0    96    8.5   282     19.3    99999.00   99999    99999.0
  21   14:40   15.9    96    9.5   281     15.0    99999.00   99999    99999.0
  21   14:50   16.4    96    7.6   283     15.0    99999.00   99999    99999.0
  21   15:00   16.1    96    8.4   285     18.0    99999.00   99999    99999.0
  21   15:10   16.0    96    9.3   284     18.9    99999.00   99999    99999.0
  21   15:20   16.0    96    9.5   288     16.3    99999.00   99999    99999.0
  21   15:30   16.3    96    8.2   283     18.0    99999.00   99999    99999.0
  21   15:40   16.3    96    9.1   302     18.0    99999.00   99999    99999.0
  21   15:50   16.0    96   12.0   301     18.9    99999.00   99999    99999.0
  21   16:00   15.6    96   15.4   305     26.1    99999.00   99999    99999.0
  21   16:10   15.6    96   11.6   302     21.0    99999.00   99999    99999.0
  21   16:20   15.7    96   12.9   304     21.4    99999.00   99999    99999.0
  21   16:30   15.5    96   13.9   304     24.4    99999.00   99999    99999.0
  21   16:40   15.5    96   14.4   303     25.7    99999.00   99999    99999.0
  21   16:50   15.4    96   14.8   302     22.3    99999.00   99999    99999.0
  21   17:00   15.2    96   14.1   301     25.3    99999.00   99999    99999.0
  21   17:10   15.0    96   17.3   305     28.3    99999.00   99999    99999.0

Return to Durango Ski Resort, Colorado graphs page.


Western Regional Climate Center,wrcc@dri.edu